Bradley International Airport
KBDL : rendu visible

Aérodrome :











RETROUVEZ-NOUS SUR...

 
LOGIN :

S'inscrire | Disclaimer

   EN    FR    IT 

 









Légende :    VFR   VFR Marginal   IFR   IFR Intensif   IFR Très Intensif
Visi : 
Plafond : 
>= 8 km
>= 3000ft
5 à 8 km
1000 à 3000 ft
1500m à 5 km
500 à 1000 ft
800 à 1500m
200 à 500 ft
< 800m
< 200 ft
Symboles :   Orages  Brouillard  Fortes neiges  Fortes précipitations  Vent > 20 kt






- Altitude de l'aérodrome : 173 ft
- Code IATA : BDL


KBDL - Bradley International

DERNIER METAR :
  • 171151Z 35007KT 10SM FEW040 FEW150 FEW250 M06/M16 A3045 RMK AO2 SLP313 T10561156 11050 21067 56003

METARs EXPIRÉS :
  • 171051Z 36006KT 10SM FEW040 FEW250 M06/M16 A3045 RMK AO2 SLP313 T10611156
  • 170951Z 36005KT 10SM FEW250 M07/M16 A3045 RMK AO2 SLP315 T10671156

TAF KBDL
Valide du 17 à 12h jusqu'au 18 à 18h UTC


171121Z 1712/1818 01006KT P6SM FEW050 FEW250
FM171500 02008KT P6SM SCT030 BKN035
FM171900 02008KT P6SM BKN025
FM180600 01010G17KT P6SM VCSH OVC010
FM181500 36011G19KT 3SM -RA OVC015
FM181700 36012G20KT 3SM -RA BR OVC015



MET'MAP, la Météo Aéronautique d'un coup d'oeil ! - Copyright ORBIFLY Décembre 2007 - Disclaimer

ORBIFLY MET'MAP TEAM :

Programmation & Développement : Alexandra Zaïnal
Conception & Développement : Baudouin d'Aumeries
Co-Programmation & Développement : Marc-Olivier Méhu
Soutien technique & logistique : Manuel Goepfert

Contact : metmap@orbifly.com




SOURCES & CREDITS :

   NOAA       Earth
Advisory